createdAt,value
2018-02-22T00:00:14.856Z,60.28
2018-02-22T00:01:18.253Z,60.30
2018-02-22T00:02:21.595Z,60.36
2018-02-22T00:03:25.117Z,60.39
2018-02-22T00:04:28.429Z,60.41
2018-02-22T00:05:31.799Z,60.44
2018-02-22T00:06:35.188Z,60.46
2018-02-22T00:07:38.567Z,60.48
2018-02-22T00:08:41.896Z,60.51
2018-02-22T00:09:45.842Z,60.52
2018-02-22T00:10:49.180Z,60.55
2018-02-22T00:11:52.512Z,60.57
2018-02-22T00:12:55.969Z,60.58
2018-02-22T00:13:59.278Z,60.61
2018-02-22T00:15:02.620Z,60.63
2018-02-22T00:16:05.981Z,60.66
2018-02-22T00:17:09.353Z,60.66
2018-02-22T00:18:12.705Z,60.68
2018-02-22T00:19:16.038Z,60.69
2018-02-22T00:20:19.415Z,60.69
2018-02-22T00:21:22.820Z,60.71
2018-02-22T00:22:26.211Z,60.74
2018-02-22T00:23:29.544Z,60.77
2018-02-22T00:24:32.987Z,60.81
2018-02-22T00:25:36.350Z,60.80
2018-02-22T00:26:39.746Z,60.80
2018-02-22T00:27:43.159Z,60.82
2018-02-22T00:28:46.585Z,60.82
2018-02-22T00:29:49.954Z,60.85
2018-02-22T00:30:53.290Z,60.87
2018-02-22T00:31:56.786Z,60.88
2018-02-22T00:33:00.168Z,60.87
2018-02-22T00:34:03.469Z,60.88
2018-02-22T00:35:06.824Z,60.88
2018-02-22T00:36:10.149Z,60.89
2018-02-22T00:37:13.550Z,60.90
2018-02-22T00:38:17.104Z,60.92
2018-02-22T00:39:20.511Z,60.96
2018-02-22T00:40:23.853Z,60.97
2018-02-22T00:41:27.180Z,60.97
2018-02-22T00:42:30.698Z,60.99
2018-02-22T00:43:34.540Z,61.02
2018-02-22T00:44:38.180Z,61.02
2018-02-22T00:45:42.199Z,61.05
2018-02-22T00:46:45.539Z,61.06
2018-02-22T00:47:48.891Z,61.07
2018-02-22T00:48:52.275Z,61.08
2018-02-22T00:49:55.696Z,61.09
2018-02-22T00:50:59.011Z,61.12
2018-02-22T00:52:02.586Z,61.15
2018-02-22T00:53:05.926Z,61.17
2018-02-22T00:54:09.720Z,61.18
2018-02-22T00:55:13.036Z,61.20
2018-02-22T00:56:16.409Z,61.22
2018-02-22T00:57:19.721Z,61.25
2018-02-22T00:58:23.161Z,61.27
2018-02-22T00:59:26.481Z,61.31
2018-02-22T01:00:29.869Z,61.33
2018-02-22T01:01:33.264Z,61.34
2018-02-22T01:02:36.629Z,61.35
2018-02-22T01:03:39.985Z,61.37
2018-02-22T01:04:43.311Z,61.40
2018-02-22T01:05:46.685Z,61.42
2018-02-22T01:06:50.034Z,61.45
2018-02-22T01:07:53.399Z,61.47
2018-02-22T01:08:56.774Z,61.49
2018-02-22T01:10:00.159Z,61.50
2018-02-22T01:11:04.546Z,61.52
2018-02-22T01:12:07.942Z,61.53
2018-02-22T01:13:11.742Z,61.55
2018-02-22T01:14:15.118Z,61.54
2018-02-22T01:15:18.535Z,61.55
2018-02-22T01:16:21.859Z,61.56
2018-02-22T01:17:25.270Z,61.59
2018-02-22T01:18:28.591Z,61.63
2018-02-22T01:19:31.937Z,61.65
2018-02-22T01:20:35.327Z,61.67
2018-02-22T01:21:38.701Z,61.71
2018-02-22T01:22:42.036Z,61.69
2018-02-22T01:23:45.383Z,61.71
2018-02-22T01:24:48.811Z,61.71
2018-02-22T01:25:56.277Z,61.72
2018-02-22T01:26:59.673Z,61.75
2018-02-22T01:28:03.009Z,61.77
2018-02-22T01:29:06.456Z,61.79
2018-02-22T01:30:09.901Z,61.81
2018-02-22T01:31:13.238Z,61.78
2018-02-22T01:32:16.653Z,61.76
2018-02-22T01:33:20.062Z,61.77
2018-02-22T01:34:23.506Z,61.81
2018-02-22T01:35:26.944Z,61.81
2018-02-22T01:36:30.386Z,61.84
2018-02-22T01:37:36.053Z,61.88
2018-02-22T01:38:40.622Z,61.89
2018-02-22T01:39:44.498Z,61.93
2018-02-22T01:40:48.007Z,61.91
2018-02-22T01:41:52.058Z,61.92
2018-02-22T01:42:55.472Z,61.94
2018-02-22T01:43:58.845Z,61.97
2018-02-22T01:45:02.208Z,61.98
2018-02-22T01:46:07.647Z,62.00
2018-02-22T01:47:10.983Z,62.02
2018-02-22T01:48:14.319Z,62.01
2018-02-22T01:49:17.816Z,62.02
2018-02-22T01:50:21.188Z,62.02
2018-02-22T01:51:24.539Z,62.02
2018-02-22T01:52:27.866Z,62.04
2018-02-22T01:53:31.191Z,62.09
2018-02-22T01:54:34.577Z,62.13
2018-02-22T01:55:38.439Z,62.16
2018-02-22T01:56:42.113Z,62.17
2018-02-22T01:57:45.451Z,62.19
2018-02-22T01:58:48.850Z,62.23
2018-02-22T01:59:52.648Z,62.24
2018-02-22T02:00:58.610Z,62.23
2018-02-22T02:02:02.037Z,62.22
2018-02-22T02:03:05.690Z,62.23
2018-02-22T02:04:09.098Z,62.26
2018-02-22T02:05:13.304Z,62.27
2018-02-22T02:06:16.706Z,62.28
2018-02-22T02:07:24.716Z,62.31
2018-02-22T02:08:47.839Z,62.32
2018-02-22T02:09:52.483Z,62.41
2018-02-22T02:10:56.284Z,62.42
2018-02-22T02:11:59.664Z,62.39
2018-02-22T02:13:04.077Z,62.39
2018-02-22T02:14:07.404Z,62.40
2018-02-22T02:15:10.785Z,62.42
2018-02-22T02:16:14.108Z,62.42
2018-02-22T02:17:17.518Z,62.43
2018-02-22T02:18:20.879Z,62.43
2018-02-22T02:19:24.293Z,62.46
2018-02-22T02:20:27.645Z,62.48
2018-02-22T02:21:31.025Z,62.49
2018-02-22T02:22:35.293Z,62.49
2018-02-22T02:23:38.666Z,62.52
2018-02-22T02:24:42.116Z,62.53
2018-02-22T02:25:46.597Z,62.51
2018-02-22T02:26:49.954Z,62.53
2018-02-22T02:27:58.852Z,62.55
2018-02-22T02:29:02.807Z,62.59
2018-02-22T02:30:06.137Z,62.61
2018-02-22T02:31:09.547Z,62.60
2018-02-22T02:32:12.953Z,62.58
2018-02-22T02:33:17.201Z,62.57
2018-02-22T02:34:20.572Z,62.60
2018-02-22T02:35:23.891Z,62.60
2018-02-22T02:36:27.236Z,62.61
2018-02-22T02:37:30.669Z,62.62
2018-02-22T02:38:34.030Z,62.61
2018-02-22T02:39:37.400Z,62.60
2018-02-22T02:40:40.786Z,62.59
2018-02-22T02:41:44.145Z,62.58
2018-02-22T02:42:47.506Z,62.59
2018-02-22T02:43:51.045Z,62.63
2018-02-22T02:44:54.949Z,62.63
2018-02-22T02:45:58.358Z,62.64
2018-02-22T02:47:01.664Z,62.63
2018-02-22T02:48:05.094Z,62.62
2018-02-22T02:49:08.399Z,62.63
2018-02-22T02:50:11.772Z,62.61
2018-02-22T02:51:15.092Z,62.64
2018-02-22T02:52:18.421Z,62.65
2018-02-22T02:53:21.743Z,62.65
2018-02-22T02:54:25.058Z,62.66
2018-02-22T02:55:28.461Z,62.65
2018-02-22T02:56:31.795Z,62.65
2018-02-22T02:57:36.012Z,62.64
2018-02-22T02:58:39.386Z,62.64
2018-02-22T02:59:42.783Z,62.64
2018-02-22T03:00:46.180Z,62.64
2018-02-22T03:01:49.550Z,62.66
2018-02-22T03:02:52.956Z,62.67
2018-02-22T03:03:56.268Z,62.68
2018-02-22T03:04:59.629Z,62.68
2018-02-22T03:06:03.032Z,62.70
2018-02-22T03:07:06.367Z,62.70
2018-02-22T03:08:09.774Z,62.69
2018-02-22T03:09:13.208Z,62.72
2018-02-22T03:10:16.544Z,62.73
2018-02-22T03:11:19.975Z,62.74
2018-02-22T03:12:23.320Z,62.73
2018-02-22T03:13:26.735Z,62.74
2018-02-22T03:14:30.069Z,62.77
2018-02-22T03:15:33.472Z,62.75
2018-02-22T03:16:36.845Z,62.77
2018-02-22T03:17:40.251Z,62.77
2018-02-22T03:18:43.636Z,62.81
2018-02-22T03:19:47.052Z,62.83
2018-02-22T03:20:50.429Z,62.85
2018-02-22T03:21:53.839Z,62.86
2018-02-22T03:22:57.269Z,62.90
2018-02-22T03:24:00.665Z,62.92
2018-02-22T03:25:04.144Z,62.95
2018-02-22T03:26:07.532Z,62.97
2018-02-22T03:27:10.931Z,63.00
2018-02-22T03:28:14.319Z,63.00
2018-02-22T03:29:17.656Z,62.98
2018-02-22T03:30:21.008Z,63.00
2018-02-22T03:31:24.393Z,63.04
2018-02-22T03:32:27.831Z,63.08
2018-02-22T03:33:31.165Z,63.10
2018-02-22T03:34:34.529Z,63.10
2018-02-22T03:35:37.916Z,63.09
2018-02-22T03:36:41.252Z,63.10
2018-02-22T03:37:44.637Z,63.11
2018-02-22T03:38:47.997Z,63.14
2018-02-22T03:39:51.473Z,63.15
2018-02-22T03:40:54.796Z,63.16
2018-02-22T03:41:58.236Z,63.17
2018-02-22T03:43:01.577Z,63.16
2018-02-22T03:44:05.037Z,63.14
2018-02-22T03:45:08.364Z,63.16
2018-02-22T03:46:11.710Z,63.17
2018-02-22T03:47:15.019Z,63.17
2018-02-22T03:48:18.405Z,63.21
2018-02-22T03:49:21.740Z,63.20
2018-02-22T03:50:25.120Z,63.22
2018-02-22T03:51:28.449Z,63.24
2018-02-22T03:52:32.521Z,63.26
2018-02-22T03:53:35.904Z,63.27
2018-02-22T03:54:39.267Z,63.28
2018-02-22T03:55:42.665Z,63.29
2018-02-22T03:56:46.001Z,63.30
2018-02-22T03:57:49.335Z,63.31
2018-02-22T03:58:52.699Z,63.32
2018-02-22T03:59:56.056Z,63.32
2018-02-22T04:00:59.475Z,63.32
2018-02-22T04:02:02.832Z,63.33
2018-02-22T04:03:06.218Z,63.38
2018-02-22T04:04:09.569Z,63.41
2018-02-22T04:05:12.970Z,63.43
2018-02-22T04:06:17.358Z,63.43
2018-02-22T04:07:20.683Z,63.45
2018-02-22T04:08:24.105Z,63.48
2018-02-22T04:09:27.521Z,63.50
2018-02-22T04:10:30.862Z,63.50
2018-02-22T04:11:34.209Z,63.51
2018-02-22T04:12:37.527Z,63.51
2018-02-22T04:13:40.850Z,63.51
2018-02-22T04:14:44.220Z,63.53
2018-02-22T04:15:47.673Z,63.53
2018-02-22T04:16:52.082Z,63.54
2018-02-22T04:17:55.432Z,63.57
2018-02-22T04:18:58.805Z,63.58
2018-02-22T04:20:02.219Z,63.58
2018-02-22T04:21:05.541Z,63.58
2018-02-22T04:22:08.890Z,63.59
2018-02-22T04:23:12.293Z,63.66
2018-02-22T04:24:16.591Z,63.68
2018-02-22T04:25:19.968Z,63.68
2018-02-22T04:26:23.418Z,63.70
2018-02-22T04:27:26.829Z,63.75
2018-02-22T04:28:30.193Z,63.83
2018-02-22T04:29:33.547Z,63.89
2018-02-22T04:30:37.046Z,63.89
2018-02-22T04:31:40.377Z,63.87
2018-02-22T04:32:43.695Z,63.86
2018-02-22T04:33:47.148Z,63.86
2018-02-22T04:34:50.558Z,63.89
2018-02-22T04:35:54.200Z,63.90
2018-02-22T04:36:57.528Z,63.91
2018-02-22T04:38:00.938Z,63.91
2018-02-22T04:39:04.404Z,63.90
2018-02-22T04:40:08.661Z,63.89
2018-02-22T04:41:12.098Z,63.92
2018-02-22T04:42:15.468Z,63.96
2018-02-22T04:43:19.759Z,63.95
2018-02-22T04:44:23.268Z,63.96
2018-02-22T04:45:26.629Z,63.98
2018-02-22T04:46:30.323Z,64.02
2018-02-22T04:47:33.692Z,64.01
2018-02-22T04:48:37.098Z,64.03
2018-02-22T04:49:40.515Z,64.01
2018-02-22T04:50:43.856Z,64.04
2018-02-22T04:51:47.337Z,64.02
2018-02-22T04:52:50.702Z,64.02
2018-02-22T04:53:54.042Z,64.05
2018-02-22T04:54:57.365Z,64.05
2018-02-22T04:56:00.795Z,64.05
2018-02-22T04:57:04.152Z,64.06
2018-02-22T04:58:07.568Z,64.07
2018-02-22T04:59:10.883Z,64.04
2018-02-22T05:00:14.335Z,64.02
2018-02-22T05:01:17.708Z,64.01
2018-02-22T05:02:21.089Z,64.00
2018-02-22T05:03:24.408Z,64.00
2018-02-22T05:04:27.756Z,64.00
2018-02-22T05:05:31.072Z,63.96
2018-02-22T05:06:34.468Z,63.95
2018-02-22T05:07:37.885Z,63.94
2018-02-22T05:08:41.214Z,63.90
2018-02-22T05:09:44.584Z,63.87
2018-02-22T05:10:47.916Z,63.85
2018-02-22T05:11:51.230Z,63.81
2018-02-22T05:12:54.575Z,63.82
2018-02-22T05:13:57.925Z,63.80
2018-02-22T05:15:01.304Z,63.78
2018-02-22T05:16:04.665Z,63.77
2018-02-22T05:17:07.991Z,63.77
2018-02-22T05:18:11.708Z,63.73
2018-02-22T05:19:15.133Z,63.71
2018-02-22T05:20:18.593Z,63.67
2018-02-22T05:21:21.945Z,63.67
2018-02-22T05:22:25.414Z,63.66
2018-02-22T05:23:28.823Z,63.66
2018-02-22T05:24:32.261Z,63.68
2018-02-22T05:25:35.610Z,63.70
2018-02-22T05:26:38.953Z,63.71
2018-02-22T05:27:42.282Z,63.71
2018-02-22T05:28:45.649Z,63.74
2018-02-22T05:29:49.004Z,63.75
2018-02-22T05:30:52.317Z,63.76
2018-02-22T05:31:56.109Z,63.76
2018-02-22T05:32:59.431Z,63.80
2018-02-22T05:34:02.915Z,63.83
2018-02-22T05:35:06.254Z,63.82
2018-02-22T05:36:09.601Z,63.82
2018-02-22T05:37:13.518Z,63.83
2018-02-22T05:38:16.832Z,63.84
2018-02-22T05:39:20.224Z,63.84
2018-02-22T05:40:24.379Z,63.83
2018-02-22T05:41:27.718Z,63.86
2018-02-22T05:42:31.103Z,63.86
2018-02-22T05:43:34.428Z,63.86
2018-02-22T05:44:40.535Z,63.89
2018-02-22T05:45:43.839Z,63.92
2018-02-22T05:46:47.314Z,63.96
2018-02-22T05:47:50.710Z,63.96
2018-02-22T05:48:54.064Z,63.96
2018-02-22T05:49:58.119Z,63.96
2018-02-22T05:51:01.654Z,63.99
2018-02-22T05:52:05.208Z,64.01
2018-02-22T05:53:08.578Z,64.04
2018-02-22T05:54:11.947Z,64.03
2018-02-22T05:55:15.453Z,64.10
2018-02-22T05:56:18.889Z,64.12
2018-02-22T05:57:22.290Z,64.14
2018-02-22T05:58:27.455Z,64.12
2018-02-22T05:59:30.790Z,64.09
2018-02-22T06:00:35.951Z,64.08
2018-02-22T06:01:39.350Z,64.11
2018-02-22T06:02:42.782Z,64.08
2018-02-22T06:03:46.105Z,64.04
2018-02-22T06:04:49.664Z,64.02
2018-02-22T06:05:53.757Z,64.00
2018-02-22T06:06:57.168Z,64.00
2018-02-22T06:08:00.488Z,63.99
2018-02-22T06:09:03.877Z,63.96
2018-02-22T06:10:07.897Z,63.94
2018-02-22T06:11:13.202Z,63.93
2018-02-22T06:12:16.551Z,63.95
2018-02-22T06:13:19.953Z,63.96
2018-02-22T06:14:23.464Z,64.00
2018-02-22T06:15:26.789Z,64.01
2018-02-22T06:16:30.164Z,64.00
2018-02-22T06:17:33.474Z,64.00
2018-02-22T06:18:36.908Z,64.00
2018-02-22T06:19:40.226Z,64.02
2018-02-22T06:20:43.636Z,64.04
2018-02-22T06:21:47.208Z,64.04
2018-02-22T06:22:50.734Z,64.05
2018-02-22T06:23:54.180Z,64.07
2018-02-22T06:24:57.628Z,64.14
2018-02-22T06:26:01.205Z,64.18
2018-02-22T06:27:05.336Z,64.22
2018-02-22T06:28:08.751Z,64.24
2018-02-22T06:29:12.225Z,64.25
2018-02-22T06:30:16.416Z,64.27
2018-02-22T06:31:21.473Z,64.28
2018-02-22T06:32:25.082Z,64.28
2018-02-22T06:33:31.150Z,64.29
2018-02-22T06:34:35.376Z,64.33
2018-02-22T06:35:38.830Z,64.35
2018-02-22T06:36:42.156Z,64.39
2018-02-22T06:37:45.521Z,64.37
2018-02-22T06:38:48.851Z,64.36
2018-02-22T06:39:52.204Z,64.41
2018-02-22T06:40:55.553Z,64.40
2018-02-22T06:41:58.875Z,64.42
2018-02-22T06:43:02.220Z,64.45
2018-02-22T06:44:05.708Z,64.50
2018-02-22T06:45:09.185Z,64.50
2018-02-22T06:46:14.131Z,64.49
2018-02-22T06:47:17.962Z,64.50
2018-02-22T06:48:21.346Z,64.50
2018-02-22T06:49:24.742Z,64.50
2018-02-22T06:50:28.182Z,64.50
2018-02-22T06:51:31.680Z,64.52
2018-02-22T06:52:35.050Z,64.52
2018-02-22T06:53:38.408Z,64.50
2018-02-22T06:54:41.734Z,64.49
2018-02-22T06:55:45.280Z,64.48
2018-02-22T06:56:48.816Z,64.52
2018-02-22T06:57:52.308Z,64.55
2018-02-22T06:58:55.732Z,64.55
2018-02-22T06:59:59.070Z,64.52
2018-02-22T07:01:02.399Z,64.50
2018-02-22T07:02:05.799Z,64.46
2018-02-22T07:03:09.273Z,64.43
2018-02-22T07:04:12.604Z,64.39
2018-02-22T07:05:15.965Z,64.34
2018-02-22T07:06:19.329Z,64.29
2018-02-22T07:07:22.626Z,64.24
2018-02-22T07:08:25.991Z,64.22
2018-02-22T07:09:29.366Z,64.19
2018-02-22T07:10:32.752Z,64.19
2018-02-22T07:11:36.191Z,64.19
2018-02-22T07:12:39.566Z,64.16
2018-02-22T07:13:42.991Z,64.12
2018-02-22T07:14:46.821Z,64.08
2018-02-22T07:15:50.188Z,64.06
2018-02-22T07:16:53.540Z,64.01
2018-02-22T07:17:56.959Z,63.98
2018-02-22T07:19:00.452Z,63.95
2018-02-22T07:20:03.796Z,63.89
2018-02-22T07:21:07.279Z,63.87
2018-02-22T07:22:10.622Z,63.87
2018-02-22T07:23:16.790Z,63.85
2018-02-22T07:24:17.347Z,63.80
2018-02-22T07:25:21.396Z,63.75
2018-02-22T07:26:24.810Z,63.71
2018-02-22T07:27:28.185Z,63.65
2018-02-22T07:28:31.691Z,63.62
2018-02-22T07:29:35.068Z,63.57
2018-02-22T07:30:38.566Z,63.47
2018-02-22T07:31:41.885Z,63.38
2018-02-22T07:32:45.202Z,63.32
2018-02-22T07:33:48.739Z,63.30
2018-02-22T07:34:52.057Z,63.24
2018-02-22T07:35:55.487Z,63.18
2018-02-22T07:36:59.780Z,63.11
2018-02-22T07:38:03.146Z,63.06
2018-02-22T07:39:06.565Z,63.01
2018-02-22T07:40:09.975Z,62.98
2018-02-22T07:41:13.372Z,62.92
2018-02-22T07:42:17.658Z,62.84
2018-02-22T07:43:21.096Z,62.72
2018-02-22T07:44:24.430Z,62.65
2018-02-22T07:45:27.784Z,62.54
2018-02-22T07:46:31.257Z,62.52
2018-02-22T07:47:34.660Z,62.41
2018-02-22T07:48:38.042Z,62.31
2018-02-22T07:49:41.392Z,62.26
2018-02-22T07:50:44.847Z,62.21
2018-02-22T07:51:48.498Z,62.18
2018-02-22T07:52:51.833Z,62.15
2018-02-22T07:53:55.195Z,62.15
2018-02-22T07:54:58.570Z,62.14
2018-02-22T07:56:02.004Z,62.12
2018-02-22T07:57:05.399Z,62.09
2018-02-22T07:58:08.765Z,62.04
2018-02-22T07:59:12.090Z,61.98
2018-02-22T08:00:15.432Z,61.94
2018-02-22T08:01:21.196Z,61.86
2018-02-22T08:02:25.514Z,61.77
2018-02-22T08:03:28.885Z,61.77
2018-02-22T08:04:32.288Z,61.63
2018-02-22T08:05:35.698Z,61.52
2018-02-22T08:06:39.008Z,61.43
2018-02-22T08:07:42.466Z,61.33
2018-02-22T08:08:47.329Z,61.22
2018-02-22T08:09:50.661Z,61.09
2018-02-22T08:10:54.242Z,61.03
2018-02-22T08:11:57.629Z,60.95
2018-02-22T08:13:01.280Z,60.92
2018-02-22T08:14:05.578Z,60.85
2018-02-22T08:15:08.889Z,60.74
2018-02-22T08:16:12.211Z,60.66
2018-02-22T08:17:15.555Z,60.58
2018-02-22T08:18:18.965Z,60.50
2018-02-22T08:19:22.277Z,60.40
2018-02-22T08:20:27.612Z,60.32
2018-02-22T08:21:30.987Z,60.29
2018-02-22T08:22:34.324Z,60.28
2018-02-22T08:23:37.697Z,60.27
2018-02-22T08:24:41.006Z,60.26
2018-02-22T08:25:44.344Z,60.19
2018-02-22T08:26:47.690Z,60.17
2018-02-22T08:27:52.417Z,60.12
2018-02-22T08:28:55.763Z,60.02
2018-02-22T08:29:59.160Z,59.96
2018-02-22T08:31:02.558Z,59.85
2018-02-22T08:32:05.974Z,59.70
2018-02-22T08:33:09.322Z,59.66
2018-02-22T08:34:12.724Z,59.48
2018-02-22T08:35:16.131Z,59.40
2018-02-22T08:36:19.505Z,59.34
2018-02-22T08:37:22.900Z,59.32
2018-02-22T08:38:26.287Z,59.29
2018-02-22T08:39:30.048Z,59.19
2018-02-22T08:40:33.407Z,59.13
2018-02-22T08:41:36.723Z,59.12
2018-02-22T08:42:40.094Z,59.01
2018-02-22T08:43:43.473Z,58.94
2018-02-22T08:44:46.849Z,58.89
2018-02-22T08:45:50.265Z,58.88
2018-02-22T08:46:53.632Z,58.86
2018-02-22T08:47:56.944Z,58.84
2018-02-22T08:49:00.334Z,58.70
2018-02-22T08:50:03.705Z,58.52
2018-02-22T08:51:07.025Z,58.45
2018-02-22T08:52:10.381Z,58.34
2018-02-22T08:53:13.713Z,58.35
2018-02-22T08:54:17.176Z,58.38
2018-02-22T08:55:20.524Z,58.21
2018-02-22T08:56:23.833Z,58.19
2018-02-22T08:57:27.233Z,58.06
2018-02-22T08:58:30.570Z,57.98
2018-02-22T08:59:33.908Z,57.92
2018-02-22T09:00:37.333Z,57.86
2018-02-22T09:01:40.719Z,57.84
2018-02-22T09:02:44.028Z,57.83
2018-02-22T09:03:47.370Z,57.82
2018-02-22T09:04:50.735Z,57.78
2018-02-22T09:05:54.102Z,57.53
2018-02-22T09:06:57.470Z,57.43
2018-02-22T09:08:00.799Z,57.38
2018-02-22T09:09:04.116Z,57.35
2018-02-22T09:10:07.429Z,57.25
2018-02-22T09:11:10.896Z,57.19
2018-02-22T09:12:14.262Z,57.18
2018-02-22T09:13:17.787Z,57.17
2018-02-22T09:14:21.116Z,57.16
2018-02-22T09:15:24.434Z,57.10
2018-02-22T09:16:27.831Z,57.12
2018-02-22T09:17:31.238Z,57.12
2018-02-22T09:18:34.548Z,57.07
2018-02-22T09:19:38.028Z,56.90
2018-02-22T09:20:41.398Z,56.85
2018-02-22T09:21:45.017Z,56.72
2018-02-22T09:22:48.370Z,56.65
2018-02-22T09:23:51.668Z,56.63
2018-02-22T09:24:55.018Z,56.58
2018-02-22T09:25:58.368Z,56.45
2018-02-22T09:27:01.730Z,56.32
2018-02-22T09:28:05.255Z,56.32
2018-02-22T09:29:08.949Z,56.21
2018-02-22T09:30:12.293Z,56.20
2018-02-22T09:31:15.605Z,56.10
2018-02-22T09:32:18.973Z,55.93
2018-02-22T09:33:22.361Z,55.89
2018-02-22T09:34:26.389Z,55.67
2018-02-22T09:35:29.810Z,55.70
2018-02-22T09:36:33.205Z,55.63
2018-02-22T09:37:36.577Z,55.51
2018-02-22T09:38:39.909Z,55.50
2018-02-22T09:39:43.240Z,55.49
2018-02-22T09:40:46.683Z,55.37
2018-02-22T09:41:49.982Z,55.24
2018-02-22T09:42:53.317Z,55.08
2018-02-22T09:43:56.753Z,54.91
2018-02-22T09:45:00.076Z,54.85
2018-02-22T09:46:03.632Z,54.83
2018-02-22T09:47:07.025Z,54.85
2018-02-22T09:48:10.367Z,54.86
2018-02-22T09:49:13.745Z,54.90
2018-02-22T09:50:17.154Z,54.90
2018-02-22T09:51:21.204Z,54.82
2018-02-22T09:52:24.875Z,54.58
2018-02-22T09:53:28.310Z,54.53
2018-02-22T09:54:31.684Z,54.47
2018-02-22T09:55:36.042Z,54.31
2018-02-22T09:56:39.342Z,54.25
2018-02-22T09:57:42.673Z,54.15
2018-02-22T09:58:46.037Z,54.16
2018-02-22T09:59:49.427Z,54.08
2018-02-22T10:00:52.826Z,54.06
2018-02-22T10:01:56.197Z,54.02
2018-02-22T10:02:59.650Z,54.01
2018-02-22T10:04:02.995Z,53.90
2018-02-22T10:05:06.314Z,53.63
2018-02-22T10:06:09.680Z,53.43
2018-02-22T10:07:13.011Z,53.08
2018-02-22T10:08:16.315Z,52.80
2018-02-22T10:09:19.767Z,52.47
2018-02-22T10:10:23.104Z,52.25
2018-02-22T10:11:26.429Z,52.18
2018-02-22T10:12:29.738Z,52.20
2018-02-22T10:13:33.094Z,52.30
2018-02-22T10:14:36.483Z,52.33
2018-02-22T10:15:39.777Z,52.25
2018-02-22T10:16:43.157Z,52.11
2018-02-22T10:17:46.603Z,52.20
2018-02-22T10:18:49.982Z,52.11
2018-02-22T10:19:53.458Z,52.01
2018-02-22T10:20:56.784Z,52.04
2018-02-22T10:22:00.117Z,52.08
2018-02-22T10:23:03.424Z,51.96
2018-02-22T10:24:06.813Z,51.95
2018-02-22T10:25:10.172Z,52.01
2018-02-22T10:26:13.482Z,52.06
2018-02-22T10:27:16.853Z,52.01
2018-02-22T10:28:20.121Z,51.94
2018-02-22T10:29:23.447Z,51.88
2018-02-22T10:30:26.832Z,51.86
2018-02-22T10:31:30.179Z,51.78
2018-02-22T10:32:33.515Z,51.64
2018-02-22T10:33:37.724Z,51.54
2018-02-22T10:34:41.048Z,51.47
2018-02-22T10:35:44.603Z,51.37
2018-02-22T10:36:48.015Z,51.04
2018-02-22T10:37:51.333Z,50.85
2018-02-22T10:38:54.707Z,50.71
2018-02-22T10:39:58.020Z,50.71
2018-02-22T10:41:01.413Z,50.71
2018-02-22T10:42:04.812Z,50.77
2018-02-22T10:43:09.166Z,50.80
2018-02-22T10:44:12.501Z,50.82
2018-02-22T10:45:15.835Z,50.77
2018-02-22T10:46:19.209Z,50.41
2018-02-22T10:47:22.633Z,50.32
2018-02-22T10:48:26.214Z,50.24
2018-02-22T10:49:29.543Z,50.17
2018-02-22T10:50:33.235Z,50.07
2018-02-22T10:51:36.620Z,49.97
2018-02-22T10:52:39.936Z,49.88
2018-02-22T10:53:43.397Z,49.75
2018-02-22T10:54:46.828Z,49.73
2018-02-22T10:55:50.122Z,49.68
2018-02-22T10:56:53.518Z,49.60
2018-02-22T10:57:56.904Z,49.56
2018-02-22T10:59:00.268Z,49.61
2018-02-22T11:00:03.691Z,49.37
2018-02-22T11:01:12.861Z,49.14
2018-02-22T11:02:21.974Z,48.84
2018-02-22T11:03:25.323Z,48.80
2018-02-22T11:04:28.727Z,48.80
2018-02-22T11:05:32.994Z,48.64
2018-02-22T11:06:36.351Z,48.54
2018-02-22T11:07:39.686Z,48.52
2018-02-22T11:08:43.021Z,48.60
2018-02-22T11:09:46.368Z,48.67
2018-02-22T11:10:49.728Z,48.78
2018-02-22T11:11:53.082Z,48.90
2018-02-22T11:12:56.416Z,49.03
2018-02-22T11:13:59.725Z,49.16
2018-02-22T11:15:03.107Z,49.29
2018-02-22T11:16:06.559Z,49.43
2018-02-22T11:17:09.933Z,49.54
2018-02-22T11:18:13.280Z,49.66
2018-02-22T11:19:16.587Z,49.77
2018-02-22T11:20:19.918Z,49.84
2018-02-22T11:21:23.312Z,49.95
2018-02-22T11:22:26.637Z,50.07
2018-02-22T11:23:30.073Z,50.09
2018-02-22T11:24:33.410Z,49.83
2018-02-22T11:25:36.741Z,49.70
2018-02-22T11:26:40.215Z,49.58
2018-02-22T11:27:43.511Z,49.49
2018-02-22T11:28:46.839Z,49.49
2018-02-22T11:29:50.144Z,49.35
2018-02-22T11:30:53.475Z,49.20
2018-02-22T11:31:56.772Z,49.20
2018-02-22T11:33:00.178Z,49.13
2018-02-22T11:34:03.679Z,49.10
2018-02-22T11:35:07.038Z,48.97
2018-02-22T11:36:10.359Z,48.77
2018-02-22T11:37:13.676Z,48.60
2018-02-22T11:38:17.677Z,48.22
2018-02-22T11:39:21.162Z,48.06
2018-02-22T11:40:24.549Z,47.91
2018-02-22T11:41:27.855Z,47.83
2018-02-22T11:42:31.197Z,47.78
2018-02-22T11:43:34.524Z,47.75
2018-02-22T11:44:37.953Z,47.56
2018-02-22T11:45:41.262Z,47.37
2018-02-22T11:46:44.867Z,46.90
2018-02-22T11:47:48.237Z,46.58
2018-02-22T11:48:51.541Z,46.47
2018-02-22T11:49:55.022Z,46.32
2018-02-22T11:50:58.390Z,46.30
2018-02-22T11:52:01.680Z,46.36
2018-02-22T11:53:04.984Z,46.23
2018-02-22T11:54:08.383Z,46.13
2018-02-22T11:55:12.054Z,46.11
2018-02-22T11:56:15.544Z,46.16
2018-02-22T11:57:18.902Z,45.88
2018-02-22T11:58:22.219Z,45.57
2018-02-22T11:59:25.638Z,45.56
2018-02-22T12:00:28.970Z,45.54
2018-02-22T12:01:32.286Z,45.51
2018-02-22T12:02:35.766Z,45.30
2018-02-22T12:03:39.949Z,45.13
2018-02-22T12:04:43.373Z,45.19
2018-02-22T12:05:46.712Z,45.24
2018-02-22T12:06:50.047Z,45.05
2018-02-22T12:07:53.394Z,44.78
2018-02-22T12:08:56.814Z,44.78
2018-02-22T12:10:01.108Z,44.89
2018-02-22T12:11:04.432Z,44.75
2018-02-22T12:12:07.741Z,44.42
2018-02-22T12:13:11.092Z,44.42
2018-02-22T12:14:14.465Z,44.48
2018-02-22T12:15:17.802Z,44.50
2018-02-22T12:16:21.216Z,44.39
2018-02-22T12:17:25.225Z,44.15
2018-02-22T12:18:29.654Z,43.81
2018-02-22T12:19:33.088Z,43.82
2018-02-22T12:20:36.405Z,43.81
2018-02-22T12:21:39.846Z,43.77
2018-02-22T12:22:43.229Z,43.82
2018-02-22T12:23:46.630Z,43.82
2018-02-22T12:24:50.018Z,43.76
2018-02-22T12:25:53.299Z,43.90
2018-02-22T12:26:56.714Z,43.95
2018-02-22T12:28:00.034Z,44.04
2018-02-22T12:29:03.355Z,43.97
2018-02-22T12:30:07.137Z,43.91
2018-02-22T12:31:10.461Z,43.86
2018-02-22T12:32:13.818Z,43.94
2018-02-22T12:33:17.102Z,43.90
2018-02-22T12:34:21.399Z,43.84
2018-02-22T12:35:24.712Z,43.80
2018-02-22T12:36:28.009Z,43.77
2018-02-22T12:37:31.364Z,43.71
2018-02-22T12:38:34.685Z,43.58
2018-02-22T12:39:38.853Z,43.69
2018-02-22T12:40:42.176Z,43.70
2018-02-22T12:41:45.497Z,43.71
2018-02-22T12:42:49.500Z,43.75
2018-02-22T12:43:52.848Z,43.73
2018-02-22T12:44:56.169Z,43.63
2018-02-22T12:45:59.570Z,43.63
2018-02-22T12:47:03.923Z,43.63
2018-02-22T12:48:07.276Z,43.70
2018-02-22T12:49:10.577Z,43.68
2018-02-22T12:50:13.874Z,43.60
2018-02-22T12:51:17.248Z,43.49
2018-02-22T12:52:20.582Z,43.54
2018-02-22T12:53:23.934Z,43.57
2018-02-22T12:54:27.220Z,43.60
2018-02-22T12:55:30.581Z,43.48
2018-02-22T12:56:34.354Z,43.48
2018-02-22T12:57:37.671Z,43.44
2018-02-22T12:58:41.623Z,43.45
2018-02-22T12:59:44.930Z,43.58
2018-02-22T13:00:48.228Z,43.66
2018-02-22T13:01:52.208Z,43.61
2018-02-22T13:02:55.520Z,43.66
2018-02-22T13:03:58.913Z,43.78
2018-02-22T13:05:02.337Z,43.90
2018-02-22T13:06:05.653Z,43.99
2018-02-22T13:07:09.005Z,44.06
2018-02-22T13:08:15.292Z,44.04
2018-02-22T13:09:21.029Z,44.11
2018-02-22T13:10:24.324Z,44.15
2018-02-22T13:11:27.723Z,44.08
2018-02-22T13:12:31.088Z,44.00
2018-02-22T13:13:34.397Z,44.13
2018-02-22T13:14:38.265Z,44.22
2018-02-22T13:15:42.024Z,44.33
2018-02-22T13:16:45.341Z,44.39
2018-02-22T13:17:49.627Z,44.29
2018-02-22T13:18:53.027Z,44.29
2018-02-22T13:19:57.219Z,44.41
2018-02-22T13:21:00.641Z,44.56
2018-02-22T13:22:04.037Z,44.67
2018-02-22T13:23:07.458Z,44.74
2018-02-22T13:24:10.912Z,44.79
2018-02-22T13:25:14.324Z,44.79
2018-02-22T13:26:17.721Z,44.83
2018-02-22T13:27:21.047Z,44.77
2018-02-22T13:28:24.384Z,44.70
2018-02-22T13:29:27.778Z,44.77
2018-02-22T13:30:31.187Z,44.90
2018-02-22T13:31:34.504Z,44.93
2018-02-22T13:32:49.462Z,44.92
2018-02-22T13:34:04.662Z,44.89
2018-02-22T13:35:08.509Z,44.94
2018-02-22T13:36:11.906Z,44.92
2018-02-22T13:37:27.053Z,44.87
2018-02-22T13:38:42.300Z,44.88